sensor_id;sensor_type;location;lat;lon;timestamp;pressure;altitude;pressure_sealevel;temperature;humidity
1077;BME280;64114;48.726;9.370;2022-12-29T00:02:24;98345.19;;;6.86;94.39
1077;BME280;64114;48.726;9.370;2022-12-29T00:04:54;98356.44;;;7.03;94.27
1077;BME280;64114;48.726;9.370;2022-12-29T00:07:22;98348.78;;;7.01;93.91
1077;BME280;64114;48.726;9.370;2022-12-29T00:09:50;98305.91;;;6.72;94.02
1077;BME280;64114;48.726;9.370;2022-12-29T00:12:18;98361.59;;;7.04;93.75
1077;BME280;64114;48.726;9.370;2022-12-29T00:14:47;98360.00;;;7.14;93.53
1077;BME280;64114;48.726;9.370;2022-12-29T00:17:33;98331.63;;;6.89;93.54
1077;BME280;64114;48.726;9.370;2022-12-29T00:20:01;98298.38;;;6.80;94.12
1077;BME280;64114;48.726;9.370;2022-12-29T00:22:47;98353.03;;;7.00;94.41
1077;BME280;64114;48.726;9.370;2022-12-29T00:25:33;98338.56;;;6.98;94.50
1077;BME280;64114;48.726;9.370;2022-12-29T00:28:21;98334.38;;;7.05;94.49
1077;BME280;64114;48.726;9.370;2022-12-29T00:31:16;98326.78;;;7.06;94.55
1077;BME280;64114;48.726;9.370;2022-12-29T00:34:02;98326.78;;;7.08;94.57
1077;BME280;64114;48.726;9.370;2022-12-29T00:36:48;98300.28;;;6.96;94.04
1077;BME280;64114;48.726;9.370;2022-12-29T00:39:17;98310.56;;;7.03;94.22
1077;BME280;64114;48.726;9.370;2022-12-29T00:42:04;98326.06;;;7.17;94.21
1077;BME280;64114;48.726;9.370;2022-12-29T00:45:03;98319.09;;;7.03;94.78
1077;BME280;64114;48.726;9.370;2022-12-29T00:47:32;98323.34;;;7.06;95.29
1077;BME280;64114;48.726;9.370;2022-12-29T00:50:01;98330.19;;;7.08;95.26
1077;BME280;64114;48.726;9.370;2022-12-29T00:52:28;98325.94;;;7.09;95.29
1077;BME280;64114;48.726;9.370;2022-12-29T00:54:56;98317.47;;;7.10;95.26
1077;BME280;64114;48.726;9.370;2022-12-29T00:57:23;98325.16;;;7.13;95.27
1077;BME280;64114;48.726;9.370;2022-12-29T00:59:52;98328.53;;;7.12;95.43
1077;BME280;64114;48.726;9.370;2022-12-29T01:02:20;98318.41;;;7.18;95.30
1077;BME280;64114;48.726;9.370;2022-12-29T01:04:50;98310.84;;;7.23;94.71
1077;BME280;64114;48.726;9.370;2022-12-29T01:07:18;98314.22;;;7.22;95.34
1077;BME280;64114;48.726;9.370;2022-12-29T01:09:46;98311.56;;;7.14;95.61
1077;BME280;64114;48.726;9.370;2022-12-29T01:12:35;98307.19;;;7.04;95.92
1077;BME280;64114;48.726;9.370;2022-12-29T01:15:13;98319.25;;;7.15;95.70
1077;BME280;64114;48.726;9.370;2022-12-29T01:17:41;98318.50;;;7.23;95.74
1077;BME280;64114;48.726;9.370;2022-12-29T01:20:11;98319.28;;;7.20;95.91
1077;BME280;64114;48.726;9.370;2022-12-29T01:22:39;98316.84;;;7.31;95.00
1077;BME280;64114;48.726;9.370;2022-12-29T01:25:09;98305.63;;;7.15;95.30
1077;BME280;64114;48.726;9.370;2022-12-29T01:27:37;98326.09;;;7.20;95.87
1077;BME280;64114;48.726;9.370;2022-12-29T01:30:06;98324.34;;;7.15;95.76
1077;BME280;64114;48.726;9.370;2022-12-29T01:32:34;98317.50;;;7.13;96.03
1077;BME280;64114;48.726;9.370;2022-12-29T01:35:02;98327.78;;;7.19;96.13
1077;BME280;64114;48.726;9.370;2022-12-29T01:37:35;98309.06;;;7.17;96.02
1077;BME280;64114;48.726;9.370;2022-12-29T01:40:03;98296.31;;;7.15;95.60
1077;BME280;64114;48.726;9.370;2022-12-29T01:42:32;98314.31;;;7.29;95.42
1077;BME280;64114;48.726;9.370;2022-12-29T01:45:02;98324.50;;;7.31;95.62
1077;BME280;64114;48.726;9.370;2022-12-29T01:47:35;98316.78;;;7.23;96.01
1077;BME280;64114;48.726;9.370;2022-12-29T01:50:09;98330.44;;;7.27;96.11
1077;BME280;64114;48.726;9.370;2022-12-29T01:52:44;98322.03;;;7.36;95.37
1077;BME280;64114;48.726;9.370;2022-12-29T01:55:16;98322.06;;;7.40;95.66
1077;BME280;64114;48.726;9.370;2022-12-29T01:57:47;98282.66;;;7.10;95.67
1077;BME280;64114;48.726;9.370;2022-12-29T02:00:17;98298.94;;;7.23;95.90
1077;BME280;64114;48.726;9.370;2022-12-29T02:02:48;98310.00;;;7.24;96.40
1077;BME280;64114;48.726;9.370;2022-12-29T02:05:24;98289.53;;;7.19;96.05
1077;BME280;64114;48.726;9.370;2022-12-29T02:07:55;98306.72;;;7.36;95.95
1077;BME280;64114;48.726;9.370;2022-12-29T02:10:25;98293.06;;;7.29;96.14
1077;BME280;64114;48.726;9.370;2022-12-29T02:12:55;98308.50;;;7.43;96.03
1077;BME280;64114;48.726;9.370;2022-12-29T02:15:36;98307.63;;;7.42;96.32
1077;BME280;64114;48.726;9.370;2022-12-29T02:18:16;98311.03;;;7.41;96.08
1077;BME280;64114;48.726;9.370;2022-12-29T02:21:14;98316.94;;;7.36;96.64
1077;BME280;64114;48.726;9.370;2022-12-29T02:27:09;98298.22;;;7.35;96.53
1077;BME280;64114;48.726;9.370;2022-12-29T02:29:58;98310.19;;;7.42;96.54
1077;BME280;64114;48.726;9.370;2022-12-29T02:32:39;98301.66;;;7.40;96.24
1077;BME280;64114;48.726;9.370;2022-12-29T02:35:22;98293.25;;;7.46;96.40
1077;BME280;64114;48.726;9.370;2022-12-29T02:38:01;98282.06;;;7.35;96.64
1077;BME280;64114;48.726;9.370;2022-12-29T02:40:36;98298.28;;;7.40;96.93
1077;BME280;64114;48.726;9.370;2022-12-29T02:43:14;98287.28;;;7.45;96.66
1077;BME280;64114;48.726;9.370;2022-12-29T02:45:52;98296.59;;;7.43;96.62
1077;BME280;64114;48.726;9.370;2022-12-29T02:48:27;98262.38;;;7.21;97.35
1077;BME280;64114;48.726;9.370;2022-12-29T02:51:00;98283.00;;;7.43;97.39
1077;BME280;64114;48.726;9.370;2022-12-29T02:53:32;98284.69;;;7.42;97.54
1077;BME280;64114;48.726;9.370;2022-12-29T02:56:18;98282.19;;;7.47;97.33
1077;BME280;64114;48.726;9.370;2022-12-29T02:58:46;98278.81;;;7.48;96.95
1077;BME280;64114;48.726;9.370;2022-12-29T03:01:29;98265.16;;;7.44;96.80
1077;BME280;64114;48.726;9.370;2022-12-29T03:04:19;98283.09;;;7.52;96.65
1077;BME280;64114;48.726;9.370;2022-12-29T03:06:59;98283.06;;;7.49;97.21
1077;BME280;64114;48.726;9.370;2022-12-29T03:09:36;98285.59;;;7.46;97.54
1077;BME280;64114;48.726;9.370;2022-12-29T03:12:16;98270.22;;;7.40;97.81
1077;BME280;64114;48.726;9.370;2022-12-29T03:14:57;98279.56;;;7.38;98.71
1077;BME280;64114;48.726;9.370;2022-12-29T03:17:51;98272.00;;;7.49;98.29
1077;BME280;64114;48.726;9.370;2022-12-29T03:20:31;98255.66;;;7.31;98.75
1077;BME280;64114;48.726;9.370;2022-12-29T03:23:05;98276.19;;;7.42;99.26
1077;BME280;64114;48.726;9.370;2022-12-29T03:25:39;98266.06;;;7.50;98.36
1077;BME280;64114;48.726;9.370;2022-12-29T03:28:12;98265.25;;;7.54;97.89
1077;BME280;64114;48.726;9.370;2022-12-29T03:30:45;98261.03;;;7.54;98.07
1077;BME280;64114;48.726;9.370;2022-12-29T03:33:23;98257.66;;;7.60;97.04
1077;BME280;64114;48.726;9.370;2022-12-29T03:36:00;98235.47;;;7.48;96.16
1077;BME280;64114;48.726;9.370;2022-12-29T03:38:35;98227.97;;;7.67;93.99
1077;BME280;64114;48.726;9.370;2022-12-29T03:41:07;98251.28;;;8.02;90.50
1077;BME280;64114;48.726;9.370;2022-12-29T03:43:36;98231.88;;;8.25;89.05
1077;BME280;64114;48.726;9.370;2022-12-29T03:46:05;98237.16;;;8.50;87.53
1077;BME280;64114;48.726;9.370;2022-12-29T03:48:33;98235.53;;;8.70;85.50
1077;BME280;64114;48.726;9.370;2022-12-29T03:51:04;98239.94;;;8.96;85.03
1077;BME280;64114;48.726;9.370;2022-12-29T03:53:33;98240.00;;;9.18;83.38
1077;BME280;64114;48.726;9.370;2022-12-29T03:56:02;98202.47;;;9.06;82.26
1077;BME280;64114;48.726;9.370;2022-12-29T03:58:31;98233.25;;;9.39;81.62
1077;BME280;64114;48.726;9.370;2022-12-29T04:01:13;98227.28;;;9.40;80.36
1077;BME280;64114;48.726;9.370;2022-12-29T04:03:44;98243.53;;;9.59;80.65
1077;BME280;64114;48.726;9.370;2022-12-29T04:06:13;98241.84;;;9.62;80.19
1077;BME280;64114;48.726;9.370;2022-12-29T04:08:49;98229.03;;;9.65;79.55
1077;BME280;64114;48.726;9.370;2022-12-29T04:11:17;98227.34;;;9.74;79.05
1077;BME280;64114;48.726;9.370;2022-12-29T04:13:45;98229.91;;;9.77;79.07
1077;BME280;64114;48.726;9.370;2022-12-29T04:16:17;98227.34;;;9.66;79.28
1077;BME280;64114;48.726;9.370;2022-12-29T04:18:46;98246.13;;;9.71;79.44
1077;BME280;64114;48.726;9.370;2022-12-29T04:21:16;98225.66;;;9.68;79.04
1077;BME280;64114;48.726;9.370;2022-12-29T04:23:44;98236.75;;;9.90;78.97
1077;BME280;64114;48.726;9.370;2022-12-29T04:26:13;98241.88;;;9.87;78.04
1077;BME280;64114;48.726;9.370;2022-12-29T04:28:55;98244.44;;;9.92;78.21
1077;BME280;64114;48.726;9.370;2022-12-29T04:31:39;98255.50;;;9.77;78.91
1077;BME280;64114;48.726;9.370;2022-12-29T04:34:06;98254.69;;;9.92;78.07
1077;BME280;64114;48.726;9.370;2022-12-29T04:36:36;98254.66;;;9.90;77.92
1077;BME280;64114;48.726;9.370;2022-12-29T04:39:04;98264.06;;;9.88;78.14
1077;BME280;64114;48.726;9.370;2022-12-29T04:41:33;98259.78;;;9.73;78.74
1077;BME280;64114;48.726;9.370;2022-12-29T04:44:02;98261.47;;;9.73;78.80
1077;BME280;64114;48.726;9.370;2022-12-29T04:46:52;98254.66;;;9.75;79.21
1077;BME280;64114;48.726;9.370;2022-12-29T04:49:37;98247.84;;;9.86;78.99
1077;BME280;64114;48.726;9.370;2022-12-29T04:52:17;98244.41;;;9.78;78.86
1077;BME280;64114;48.726;9.370;2022-12-29T04:54:45;98249.50;;;9.62;79.80
1077;BME280;64114;48.726;9.370;2022-12-29T04:57:18;98252.94;;;9.60;79.96
1077;BME280;64114;48.726;9.370;2022-12-29T04:59:50;98246.94;;;9.53;80.36
1077;BME280;64114;48.726;9.370;2022-12-29T05:02:18;98251.22;;;9.59;80.05
1077;BME280;64114;48.726;9.370;2022-12-29T05:04:49;98212.78;;;9.28;80.37
1077;BME280;64114;48.726;9.370;2022-12-29T05:07:19;98257.16;;;9.44;81.06
1077;BME280;64114;48.726;9.370;2022-12-29T05:09:48;98258.03;;;9.55;80.85
1077;BME280;64114;48.726;9.370;2022-12-29T05:12:16;98266.56;;;9.60;80.17
1077;BME280;64114;48.726;9.370;2022-12-29T05:15:02;98257.19;;;9.56;79.90
1077;BME280;64114;48.726;9.370;2022-12-29T05:17:31;98259.75;;;9.55;80.00
1077;BME280;64114;48.726;9.370;2022-12-29T05:19:59;98263.16;;;9.64;79.67
1077;BME280;64114;48.726;9.370;2022-12-29T05:22:29;98264.03;;;9.71;79.37
1077;BME280;64114;48.726;9.370;2022-12-29T05:24:57;98272.59;;;9.76;78.84
1077;BME280;64114;48.726;9.370;2022-12-29T05:27:25;98263.19;;;9.78;78.11
1077;BME280;64114;48.726;9.370;2022-12-29T05:30:04;98269.19;;;9.77;77.99
1077;BME280;64114;48.726;9.370;2022-12-29T05:32:33;98264.06;;;9.77;78.59
1077;BME280;64114;48.726;9.370;2022-12-29T05:35:01;98261.47;;;9.79;77.84
1077;BME280;64114;48.726;9.370;2022-12-29T05:37:33;98229.91;;;9.74;77.86
1077;BME280;64114;48.726;9.370;2022-12-29T05:40:02;98223.09;;;9.79;77.88
1077;BME280;64114;48.726;9.370;2022-12-29T05:42:30;98222.25;;;9.78;77.62
1077;BME280;64114;48.726;9.370;2022-12-29T05:45:27;98253.81;;;10.02;77.83
1077;BME280;64114;48.726;9.370;2022-12-29T05:48:04;98269.19;;;9.94;77.58
1077;BME280;64114;48.726;9.370;2022-12-29T05:51:02;98221.38;;;9.75;77.43
1077;BME280;64114;48.726;9.370;2022-12-29T05:53:47;98270.91;;;10.02;76.74
1077;BME280;64114;48.726;9.370;2022-12-29T05:56:16;98250.41;;;10.02;76.32
1077;BME280;64114;48.726;9.370;2022-12-29T05:58:52;98249.53;;;10.04;76.59
1077;BME280;64114;48.726;9.370;2022-12-29T06:01:21;98256.38;;;10.10;76.24
1077;BME280;64114;48.726;9.370;2022-12-29T06:03:49;98258.06;;;10.09;76.77
1077;BME280;64114;48.726;9.370;2022-12-29T06:06:19;98259.78;;;10.06;76.86
1077;BME280;64114;48.726;9.370;2022-12-29T06:08:49;98251.25;;;10.07;76.36
1077;BME280;64114;48.726;9.370;2022-12-29T06:11:18;98233.31;;;9.96;76.55
1077;BME280;64114;48.726;9.370;2022-12-29T06:13:53;98254.66;;;10.17;76.45
1077;BME280;64114;48.726;9.370;2022-12-29T06:16:22;98252.09;;;10.10;76.40
1077;BME280;64114;48.726;9.370;2022-12-29T06:18:54;98239.28;;;10.17;76.30
1077;BME280;64114;48.726;9.370;2022-12-29T06:21:22;98183.81;;;10.00;75.63
1077;BME280;64114;48.726;9.370;2022-12-29T06:23:52;98240.13;;;10.37;75.01
1077;BME280;64114;48.726;9.370;2022-12-29T06:26:20;98230.75;;;10.25;75.17
1077;BME280;64114;48.726;9.370;2022-12-29T06:28:48;98232.44;;;10.34;74.90
1077;BME280;64114;48.726;9.370;2022-12-29T06:31:16;98223.06;;;10.29;75.32
1077;BME280;64114;48.726;9.370;2022-12-29T06:33:44;98188.94;;;10.09;74.85
1077;BME280;64114;48.726;9.370;2022-12-29T06:36:16;98239.28;;;10.40;75.55
1077;BME280;64114;48.726;9.370;2022-12-29T06:38:44;98211.13;;;10.21;75.50
1077;BME280;64114;48.726;9.370;2022-12-29T06:41:13;98242.69;;;10.37;76.57
1077;BME280;64114;48.726;9.370;2022-12-29T06:44:15;98182.09;;;9.96;77.06
1077;BME280;64114;48.726;9.370;2022-12-29T06:46:52;98173.59;;;9.83;76.80
1077;BME280;64114;48.726;9.370;2022-12-29T06:49:20;98243.56;;;10.27;76.92
1077;BME280;64114;48.726;9.370;2022-12-29T06:51:48;98247.84;;;10.30;76.86
1077;BME280;64114;48.726;9.370;2022-12-29T06:54:16;98221.38;;;10.12;77.06
1077;BME280;64114;48.726;9.370;2022-12-29T06:56:48;98246.97;;;10.29;76.97
1077;BME280;64114;48.726;9.370;2022-12-29T06:59:16;98245.28;;;10.20;77.20
1077;BME280;64114;48.726;9.370;2022-12-29T07:01:44;98239.28;;;10.17;77.37
1077;BME280;64114;48.726;9.370;2022-12-29T07:04:13;98221.38;;;10.12;76.97
1077;BME280;64114;48.726;9.370;2022-12-29T07:06:40;98227.31;;;10.28;77.33
1077;BME280;64114;48.726;9.370;2022-12-29T07:09:09;98216.22;;;10.26;77.00
1077;BME280;64114;48.726;9.370;2022-12-29T07:11:37;98215.38;;;10.29;77.09
1077;BME280;64114;48.726;9.370;2022-12-29T07:14:07;98228.19;;;10.35;77.18
1077;BME280;64114;48.726;9.370;2022-12-29T07:16:34;98221.38;;;10.28;77.35
1077;BME280;64114;48.726;9.370;2022-12-29T07:19:04;98219.63;;;10.28;77.75
1077;BME280;64114;48.726;9.370;2022-12-29T07:21:32;98227.34;;;10.33;78.20
1077;BME280;64114;48.726;9.370;2022-12-29T07:24:00;98229.03;;;10.32;78.56
1077;BME280;64114;48.726;9.370;2022-12-29T07:26:29;98218.78;;;10.34;77.56
1077;BME280;64114;48.726;9.370;2022-12-29T07:29:01;98224.75;;;10.48;77.21
1077;BME280;64114;48.726;9.370;2022-12-29T07:31:32;98207.69;;;10.36;77.45
1077;BME280;64114;48.726;9.370;2022-12-29T07:34:00;98223.03;;;10.47;78.09
1077;BME280;64114;48.726;9.370;2022-12-29T07:36:28;98224.78;;;10.36;77.80
1077;BME280;64114;48.726;9.370;2022-12-29T07:39:00;98223.03;;;10.39;77.57
1077;BME280;64114;48.726;9.370;2022-12-29T07:41:28;98230.75;;;10.32;78.77
1077;BME280;64114;48.726;9.370;2022-12-29T07:43:58;98231.59;;;10.29;79.01
1077;BME280;64114;48.726;9.370;2022-12-29T07:46:46;98237.59;;;10.33;78.68
1077;BME280;64114;48.726;9.370;2022-12-29T07:49:22;98229.91;;;10.30;79.12
1077;BME280;64114;48.726;9.370;2022-12-29T07:51:50;98234.16;;;10.31;79.17
1077;BME280;64114;48.726;9.370;2022-12-29T07:54:19;98226.47;;;10.26;79.98
1077;BME280;64114;48.726;9.370;2022-12-29T07:56:50;98228.19;;;10.27;79.96
1077;BME280;64114;48.726;9.370;2022-12-29T07:59:17;98239.31;;;10.18;80.64
1077;BME280;64114;48.726;9.370;2022-12-29T08:01:48;98249.56;;;10.18;81.54
1077;BME280;64114;48.726;9.370;2022-12-29T08:04:17;98225.66;;;9.93;81.30
1077;BME280;64114;48.726;9.370;2022-12-29T08:06:45;98260.66;;;10.11;81.57
1077;BME280;64114;48.726;9.370;2022-12-29T08:09:13;98224.81;;;9.85;81.74
1077;BME280;64114;48.726;9.370;2022-12-29T08:11:48;98241.00;;;10.01;82.66
1077;BME280;64114;48.726;9.370;2022-12-29T08:14:16;98198.34;;;9.75;82.93
1077;BME280;64114;48.726;9.370;2022-12-29T08:16:45;98244.44;;;10.03;82.83
1077;BME280;64114;48.726;9.370;2022-12-29T08:19:14;98240.16;;;9.85;82.94
1077;BME280;64114;48.726;9.370;2022-12-29T08:21:42;98257.22;;;10.04;83.41
1077;BME280;64114;48.726;9.370;2022-12-29T08:24:10;98261.50;;;10.02;83.91
1077;BME280;64114;48.726;9.370;2022-12-29T08:26:38;98261.50;;;10.04;84.12
1077;BME280;64114;48.726;9.370;2022-12-29T08:29:05;98243.56;;;9.85;84.73
1077;BME280;64114;48.726;9.370;2022-12-29T08:31:34;98273.44;;;10.03;84.53
1077;BME280;64114;48.726;9.370;2022-12-29T08:34:02;98271.72;;;10.08;84.63
1077;BME280;64114;48.726;9.370;2022-12-29T08:36:32;98277.72;;;10.09;84.28
1077;BME280;64114;48.726;9.370;2022-12-29T08:38:59;98250.38;;;9.97;84.59
1077;BME280;64114;48.726;9.370;2022-12-29T08:41:27;98278.56;;;10.08;85.09
1077;BME280;64114;48.726;9.370;2022-12-29T08:43:55;98266.63;;;10.12;85.76
1077;BME280;64114;48.726;9.370;2022-12-29T08:46:23;98276.03;;;10.11;85.83
1077;BME280;64114;48.726;9.370;2022-12-29T08:48:51;98285.41;;;10.12;86.35
1077;BME280;64114;48.726;9.370;2022-12-29T08:51:18;98270.03;;;10.12;86.32
1077;BME280;64114;48.726;9.370;2022-12-29T08:53:52;98237.63;;;9.88;86.46
1077;BME280;64114;48.726;9.370;2022-12-29T08:56:20;98257.22;;;10.10;86.59
1077;BME280;64114;48.726;9.370;2022-12-29T08:58:53;98272.59;;;10.15;86.30
1077;BME280;64114;48.726;9.370;2022-12-29T09:01:23;98258.09;;;10.05;86.64
1077;BME280;64114;48.726;9.370;2022-12-29T09:03:51;98251.25;;;9.98;86.67
1077;BME280;64114;48.726;9.370;2022-12-29T09:06:38;98223.09;;;9.79;86.20
1077;BME280;64114;48.726;9.370;2022-12-29T09:09:08;98274.28;;;10.15;85.63
1077;BME280;64114;48.726;9.370;2022-12-29T09:11:36;98230.78;;;9.93;85.57
1077;BME280;64114;48.726;9.370;2022-12-29T09:14:04;98252.94;;;10.00;85.85
1077;BME280;64114;48.726;9.370;2022-12-29T09:16:32;98276.00;;;10.22;85.94
1077;BME280;64114;48.726;9.370;2022-12-29T09:19:00;98262.34;;;10.12;85.79
1077;BME280;64114;48.726;9.370;2022-12-29T09:21:29;98278.59;;;10.17;86.24
1077;BME280;64114;48.726;9.370;2022-12-29T09:23:57;98298.19;;;10.32;85.77
1077;BME280;64114;48.726;9.370;2022-12-29T09:26:26;98296.50;;;10.36;85.71
1077;BME280;64114;48.726;9.370;2022-12-29T09:28:54;98293.06;;;10.42;85.79
1077;BME280;64114;48.726;9.370;2022-12-29T09:31:23;98283.69;;;10.42;86.31
1077;BME280;64114;48.726;9.370;2022-12-29T09:33:51;98292.22;;;10.47;86.95
1077;BME280;64114;48.726;9.370;2022-12-29T09:36:20;98311.06;;;10.49;87.23
1077;BME280;64114;48.726;9.370;2022-12-29T09:38:49;98287.13;;;10.50;86.75
1077;BME280;64114;48.726;9.370;2022-12-29T09:41:23;98263.19;;;10.31;84.45
1077;BME280;64114;48.726;9.370;2022-12-29T09:44:02;98291.38;;;10.70;83.63
1077;BME280;64114;48.726;9.370;2022-12-29T09:46:35;98241.00;;;10.44;81.85
1077;BME280;64114;48.726;9.370;2022-12-29T09:49:11;98278.50;;;10.90;80.66
1077;BME280;64114;48.726;9.370;2022-12-29T09:51:43;98278.53;;;10.89;80.15
1077;BME280;64114;48.726;9.370;2022-12-29T09:54:23;98276.72;;;11.11;79.82
1077;BME280;64114;48.726;9.370;2022-12-29T09:56:52;98275.03;;;11.15;79.26
1077;BME280;64114;48.726;9.370;2022-12-29T09:59:24;98259.56;;;11.22;78.10
1077;BME280;64114;48.726;9.370;2022-12-29T10:01:58;98272.34;;;11.36;77.99
1077;BME280;64114;48.726;9.370;2022-12-29T10:04:31;98254.34;;;11.44;77.49
1077;BME280;64114;48.726;9.370;2022-12-29T10:07:03;98265.38;;;11.59;77.08
1077;BME280;64114;48.726;9.370;2022-12-29T10:10:03;98285.00;;;11.72;77.37
1077;BME280;64114;48.726;9.370;2022-12-29T10:12:54;98268.69;;;11.75;77.77
1077;BME280;64114;48.726;9.370;2022-12-29T10:15:38;98238.03;;;11.53;77.87
1077;BME280;64114;48.726;9.370;2022-12-29T10:18:20;98271.19;;;11.89;77.26
1077;BME280;64114;48.726;9.370;2022-12-29T10:20:54;98284.06;;;11.82;77.58
1077;BME280;64114;48.726;9.370;2022-12-29T10:23:28;98290.91;;;11.83;78.21
1077;BME280;64114;48.726;9.370;2022-12-29T10:26:01;98272.13;;;11.74;77.67
1077;BME280;64114;48.726;9.370;2022-12-29T10:28:35;98297.78;;;11.77;78.08
1077;BME280;64114;48.726;9.370;2022-12-29T10:31:13;98290.16;;;11.64;79.07
1077;BME280;64114;48.726;9.370;2022-12-29T10:33:43;98300.44;;;11.63;79.52
1077;BME280;64114;48.726;9.370;2022-12-29T10:36:15;98294.34;;;11.82;78.83
1077;BME280;64114;48.726;9.370;2022-12-29T10:38:51;98280.72;;;11.68;79.25
1077;BME280;64114;48.726;9.370;2022-12-29T10:41:24;98291.75;;;11.89;78.71
1077;BME280;64114;48.726;9.370;2022-12-29T10:43:54;98288.25;;;11.97;78.28
1077;BME280;64114;48.726;9.370;2022-12-29T10:46:29;98281.31;;;12.06;78.10
1077;BME280;64114;48.726;9.370;2022-12-29T10:48:58;98287.34;;;12.01;78.05
1077;BME280;64114;48.726;9.370;2022-12-29T10:51:30;98257.50;;;11.86;78.57
1077;BME280;64114;48.726;9.370;2022-12-29T10:54:05;98265.91;;;12.07;77.88
1077;BME280;64114;48.726;9.370;2022-12-29T10:56:40;98275.94;;;12.41;77.38
1077;BME280;64114;48.726;9.370;2022-12-29T10:59:14;98275.16;;;12.30;77.04
1077;BME280;64114;48.726;9.370;2022-12-29T11:01:53;98260.69;;;12.20;76.16
1077;BME280;64114;48.726;9.370;2022-12-29T11:04:44;98278.63;;;12.21;76.38
1077;BME280;64114;48.726;9.370;2022-12-29T11:07:16;98288.06;;;12.22;76.58
1077;BME280;64114;48.726;9.370;2022-12-29T11:09:52;98248.72;;;12.15;76.13
1077;BME280;64114;48.726;9.370;2022-12-29T11:12:23;98274.38;;;12.22;76.81
1077;BME280;64114;48.726;9.370;2022-12-29T11:15:13;98282.00;;;12.29;76.40
1077;BME280;64114;48.726;9.370;2022-12-29T11:17:48;98276.94;;;12.22;77.11
1077;BME280;64114;48.726;9.370;2022-12-29T11:20:29;98264.78;;;12.44;76.06
1077;BME280;64114;48.726;9.370;2022-12-29T11:22:58;98277.50;;;12.56;76.73
1077;BME280;64114;48.726;9.370;2022-12-29T11:25:26;98254.44;;;12.50;76.06
1077;BME280;64114;48.726;9.370;2022-12-29T11:27:55;98233.13;;;12.33;76.02
1077;BME280;64114;48.726;9.370;2022-12-29T11:30:24;98281.59;;;12.74;75.22
1077;BME280;64114;48.726;9.370;2022-12-29T11:32:55;98246.03;;;12.28;76.86
1077;BME280;64114;48.726;9.370;2022-12-29T11:38:18;98281.19;;;12.26;78.40
1077;BME280;64114;48.726;9.370;2022-12-29T11:40:47;98282.03;;;12.28;77.69
1077;BME280;64114;48.726;9.370;2022-12-29T11:43:23;98276.84;;;12.29;78.38
1077;BME280;64114;48.726;9.370;2022-12-29T11:45:54;98291.38;;;12.38;78.32
1077;BME280;64114;48.726;9.370;2022-12-29T11:48:29;98231.69;;;12.05;78.80
1077;BME280;64114;48.726;9.370;2022-12-29T11:50:58;98288.75;;;12.48;78.55
1077;BME280;64114;48.726;9.370;2022-12-29T11:53:28;98280.22;;;12.42;78.91
1077;BME280;64114;48.726;9.370;2022-12-29T11:56:03;98287.03;;;12.47;79.54
1077;BME280;64114;48.726;9.370;2022-12-29T11:58:33;98275.63;;;12.74;78.78
1077;BME280;64114;48.726;9.370;2022-12-29T12:01:04;98284.09;;;12.84;78.45
1077;BME280;64114;48.726;9.370;2022-12-29T12:03:38;98279.81;;;12.83;77.75
1077;BME280;64114;48.726;9.370;2022-12-29T12:06:12;98286.69;;;12.82;79.62
1077;BME280;64114;48.726;9.370;2022-12-29T12:08:47;98284.16;;;12.79;79.75
1077;BME280;64114;48.726;9.370;2022-12-29T12:11:18;98277.56;;;12.52;80.28
1077;BME280;64114;48.726;9.370;2022-12-29T12:13:55;98280.00;;;12.64;80.48
1077;BME280;64114;48.726;9.370;2022-12-29T12:16:35;98271.31;;;12.76;80.51
1077;BME280;64114;48.726;9.370;2022-12-29T12:19:13;98282.47;;;12.73;80.79
1077;BME280;64114;48.726;9.370;2022-12-29T12:21:47;98272.16;;;12.77;80.88
1077;BME280;64114;48.726;9.370;2022-12-29T12:24:25;98222.09;;;12.23;82.45
1077;BME280;64114;48.726;9.370;2022-12-29T12:27:00;98285.13;;;12.64;82.57
1077;BME280;64114;48.726;9.370;2022-12-29T12:29:34;98285.09;;;12.69;82.67
1077;BME280;64114;48.726;9.370;2022-12-29T12:32:12;98288.66;;;12.57;82.70
1077;BME280;64114;48.726;9.370;2022-12-29T12:34:44;98299.50;;;12.84;82.08
1077;BME280;64114;48.726;9.370;2022-12-29T12:40:28;98288.59;;;12.62;85.29
1077;BME280;64114;48.726;9.370;2022-12-29T12:43:10;98288.66;;;12.57;87.62
1077;BME280;64114;48.726;9.370;2022-12-29T12:45:48;98280.06;;;12.59;87.61
1077;BME280;64114;48.726;9.370;2022-12-29T12:48:34;98291.22;;;12.58;87.49
1077;BME280;64114;48.726;9.370;2022-12-29T12:51:11;98295.41;;;12.64;87.58
1077;BME280;64114;48.726;9.370;2022-12-29T12:53:55;98273.34;;;12.44;88.17
1077;BME280;64114;48.726;9.370;2022-12-29T12:56:43;98276.78;;;12.42;88.79
1077;BME280;64114;48.726;9.370;2022-12-29T12:59:30;98270.03;;;12.27;90.94
1077;BME280;64114;48.726;9.370;2022-12-29T13:02:06;98256.44;;;12.11;92.69
1077;BME280;64114;48.726;9.370;2022-12-29T13:04:48;98267.31;;;12.47;91.49
1077;BME280;64114;48.726;9.370;2022-12-29T13:07:31;98254.22;;;12.72;89.48
1077;BME280;64114;48.726;9.370;2022-12-29T13:10:19;98267.72;;;12.91;88.77
1077;BME280;64114;48.726;9.370;2022-12-29T13:12:54;98256.34;;;13.11;87.90
1077;BME280;64114;48.726;9.370;2022-12-29T13:15:38;98259.78;;;13.11;86.65
1077;BME280;64114;48.726;9.370;2022-12-29T13:18:17;98257.06;;;13.24;86.17
1077;BME280;64114;48.726;9.370;2022-12-29T13:20:54;98252.91;;;13.13;85.84
1077;BME280;64114;48.726;9.370;2022-12-29T13:23:30;98257.97;;;13.18;85.96
1077;BME280;64114;48.726;9.370;2022-12-29T13:26:09;98259.75;;;13.13;85.74
1077;BME280;64114;48.726;9.370;2022-12-29T13:28:50;98257.56;;;12.79;87.40
1077;BME280;64114;48.726;9.370;2022-12-29T13:31:29;98259.97;;;12.94;88.29
1077;BME280;64114;48.726;9.370;2022-12-29T13:34:05;98252.22;;;12.97;88.41
1077;BME280;64114;48.726;9.370;2022-12-29T13:36:42;98254.53;;;13.19;87.90
1077;BME280;64114;48.726;9.370;2022-12-29T13:39:16;98258.13;;;13.07;86.70
1077;BME280;64114;48.726;9.370;2022-12-29T13:41:49;98261.81;;;12.84;87.47
1077;BME280;64114;48.726;9.370;2022-12-29T13:44:21;98212.13;;;12.79;87.55
1077;BME280;64114;48.726;9.370;2022-12-29T13:46:50;98251.03;;;13.23;87.10
1077;BME280;64114;48.726;9.370;2022-12-29T13:49:22;98248.34;;;13.34;85.92
1077;BME280;64114;48.726;9.370;2022-12-29T13:51:52;98246.88;;;13.14;85.74
1077;BME280;64114;48.726;9.370;2022-12-29T13:54:35;98236.72;;;13.00;86.31
1077;BME280;64114;48.726;9.370;2022-12-29T13:57:10;98165.06;;;12.71;85.72
1077;BME280;64114;48.726;9.370;2022-12-29T13:59:47;98252.81;;;13.19;86.15